Time;durP1;ratioP1;P1;durP2;ratioP2;P2;SDS_P1;SDS_P2;PMS_P1;PMS_P2;Temp;Humidity;BMP_temperature;BMP_pressure;BME280_temperature;BME280_humidity;BME280_pressure;Samples;Min_cycle;Max_cycle;Signal;HPM_P1;HPM_P2
2022/09/01 00:01:41;;;;;;;1999.90;999.90;;;17.60;1.00;;;;;;5016296;28;20204;-64
2022/09/01 00:04:12;;;;;;;1999.90;999.90;;;17.60;1.00;;;;;;5016171;28;20196;-64
2022/09/01 00:06:40;;;;;;;1999.90;999.90;;;17.70;1.00;;;;;;5015907;28;20178;-64
2022/09/01 00:09:09;;;;;;;1999.90;999.90;;;17.60;1.00;;;;;;5016173;28;20209;-65
2022/09/01 00:11:36;;;;;;;1999.90;999.90;;;17.60;1.00;;;;;;5016067;28;20203;-65
2022/09/01 00:14:06;;;;;;;1999.90;999.90;;;17.50;1.00;;;;;;5015920;28;20214;-65
2022/09/01 00:16:35;;;;;;;1999.90;999.90;;;17.50;1.00;;;;;;5015933;28;20238;-64
2022/09/01 00:19:03;;;;;;;1999.90;999.90;;;17.50;1.00;;;;;;5015985;28;20211;-65
2022/09/01 00:21:33;;;;;;;1999.90;999.90;;;17.40;1.00;;;;;;5015644;28;20663;-64
2022/09/01 00:24:01;;;;;;;1999.90;999.90;;;17.40;1.00;;;;;;5015611;28;20552;-64
2022/09/01 00:26:28;;;;;;;1999.90;999.90;;;17.30;1.00;;;;;;5015811;28;20205;-65
2022/09/01 00:28:55;;;;;;;1999.90;999.90;;;17.30;1.00;;;;;;5015470;28;20202;-65
2022/09/01 00:31:23;;;;;;;1999.90;999.90;;;17.30;1.00;;;;;;5015743;28;20240;-64
2022/09/01 00:33:51;;;;;;;1999.90;999.90;;;17.20;1.00;;;;;;5015747;28;20195;-64
2022/09/01 00:36:19;;;;;;;1999.90;999.90;;;17.10;1.00;;;;;;5015517;28;20229;-65
2022/09/01 00:38:47;;;;;;;1999.90;999.90;;;17.10;1.00;;;;;;5015645;28;20206;-65
2022/09/01 00:41:15;;;;;;;1999.90;999.90;;;17.10;1.00;;;;;;5015270;28;20193;-65
2022/09/01 00:43:45;;;;;;;1999.90;999.90;;;17.00;1.00;;;;;;5015393;28;20209;-65
2022/09/01 00:46:16;;;;;;;1999.90;999.90;;;16.90;1.00;;;;;;5015769;28;20212;-65
2022/09/01 00:48:43;;;;;;;1999.90;999.90;;;16.90;1.00;;;;;;5015214;28;20183;-64
2022/09/01 00:51:13;;;;;;;1999.90;999.90;;;16.80;1.00;;;;;;5015091;28;20567;-65
2022/09/01 00:53:43;;;;;;;1999.90;999.90;;;16.80;1.00;;;;;;5015011;28;20210;-65
2022/09/01 00:56:10;;;;;;;1999.90;999.90;;;16.80;1.00;;;;;;5014892;28;20223;-65
2022/09/01 00:58:38;;;;;;;1999.90;999.90;;;16.80;1.00;;;;;;5014829;28;20240;-64
2022/09/01 01:01:06;;;;;;;1999.90;999.90;;;16.70;1.00;;;;;;5014993;28;20208;-64
2022/09/01 01:03:33;;;;;;;1999.90;999.90;;;16.70;1.00;;;;;;5014672;28;20206;-64
2022/09/01 01:06:03;;;;;;;1999.90;999.90;;;16.60;1.00;;;;;;5014767;28;20193;-64
2022/09/01 01:08:34;;;;;;;1999.90;999.90;;;16.60;1.00;;;;;;5014736;28;20554;-65
2022/09/01 01:11:03;;;;;;;1999.90;999.90;;;16.60;1.00;;;;;;5014735;28;20562;-65
2022/09/01 01:13:30;;;;;;;1999.90;999.90;;;16.50;1.00;;;;;;5014576;28;20205;-65
2022/09/01 01:15:58;;;;;;;1999.90;999.90;;;16.50;1.00;;;;;;5014586;28;20225;-64
2022/09/01 01:18:26;;;;;;;1999.90;999.90;;;16.50;1.00;;;;;;5014822;28;20197;-64
2022/09/01 01:23:50;;;;;;;1999.90;999.90;;;16.50;1.00;;;;;;5014688;28;20225;-64
2022/09/01 01:26:18;;;;;;;1999.90;999.90;;;16.50;1.00;;;;;;5014750;28;20184;-65
2022/09/01 01:28:46;;;;;;;1999.90;999.90;;;16.50;1.00;;;;;;5014329;28;20548;-64
2022/09/01 01:31:17;;;;;;;1999.90;999.90;;;16.40;1.00;;;;;;5014263;28;20205;-64
2022/09/01 01:33:47;;;;;;;1999.90;999.90;;;16.30;1.00;;;;;;5014659;28;20186;-64
2022/09/01 01:36:18;;;;;;;1999.90;999.90;;;16.20;1.00;;;;;;5014152;28;20690;-64
2022/09/01 01:38:48;;;;;;;1999.90;999.90;;;16.10;1.20;;;;;;5014516;28;20190;-64
2022/09/01 01:41:20;;;;;;;1999.90;999.90;;;16.10;6.80;;;;;;5014394;28;20185;-65
2022/09/01 01:43:49;;;;;;;1999.90;999.90;;;16.10;10.50;;;;;;5014029;28;20195;-64
2022/09/01 01:46:17;;;;;;;1999.90;999.90;;;16.00;13.80;;;;;;5014038;28;20743;-64
2022/09/01 01:48:46;;;;;;;1999.90;999.90;;;16.00;14.40;;;;;;5014043;28;20201;-64
2022/09/01 01:51:13;;;;;;;1999.90;999.90;;;16.00;16.30;;;;;;5014298;28;20206;-64
2022/09/01 01:53:40;;;;;;;1999.90;999.90;;;16.00;13.40;;;;;;5014164;28;20204;-64
2022/09/01 01:56:09;;;;;;;1999.90;999.90;;;16.00;13.20;;;;;;5014011;28;20209;-65
2022/09/01 01:58:38;;;;;;;1999.90;999.90;;;15.90;14.10;;;;;;5013740;28;20285;-64
2022/09/01 02:01:09;;;;;;;1999.90;999.90;;;15.90;14.60;;;;;;5014064;28;20201;-64
2022/09/01 02:03:37;;;;;;;1999.90;999.90;;;15.90;14.20;;;;;;5013723;28;20180;-63
2022/09/01 02:06:08;;;;;;;1999.90;999.90;;;15.80;15.80;;;;;;5013950;28;20193;-64
2022/09/01 02:08:37;;;;;;;1999.90;999.90;;;15.80;17.40;;;;;;5013650;28;20723;-64
2022/09/01 02:11:05;;;;;;;1999.90;999.90;;;15.70;21.20;;;;;;5013939;28;20207;-64
2022/09/01 02:13:34;;;;;;;1999.90;999.90;;;15.70;27.80;;;;;;5012684;28;20203;-64
2022/09/01 02:16:06;;;;;;;1999.90;999.90;;;15.70;32.40;;;;;;5013451;28;20221;-64
2022/09/01 02:18:35;;;;;;;1999.90;999.90;;;15.60;32.50;;;;;;5013831;28;20192;-64
2022/09/01 02:21:09;;;;;;;1999.90;999.90;;;15.60;33.60;;;;;;5013343;28;20200;-64
2022/09/01 02:23:39;;;;;;;1999.90;999.90;;;15.60;34.60;;;;;;5013720;28;20191;-64
2022/09/01 02:26:10;;;;;;;1999.90;999.90;;;15.60;35.10;;;;;;5013261;28;20555;-64
2022/09/01 02:28:41;;;;;;;1999.90;999.90;;;15.50;37.60;;;;;;5013875;28;20174;-64
2022/09/01 02:31:11;;;;;;;1999.90;999.90;;;15.40;42.20;;;;;;5013625;28;20182;-64
2022/09/01 02:33:42;;;;;;;1999.90;999.90;;;15.40;43.30;;;;;;5013310;28;20200;-64
2022/09/01 02:36:13;;;;;;;1999.90;999.90;;;15.40;43.80;;;;;;5013414;28;20210;-64
2022/09/01 02:38:41;;;;;;;1999.90;999.90;;;15.40;45.00;;;;;;5013463;28;20187;-64
2022/09/01 02:41:08;;;;;;;1999.90;999.90;;;15.40;46.30;;;;;;5013082;28;20205;-64
2022/09/01 02:43:36;;;;;;;1999.90;999.90;;;15.40;46.90;;;;;;5013208;28;20208;-64
2022/09/01 02:46:05;;;;;;;1999.90;999.90;;;15.30;48.30;;;;;;5013265;28;20197;-64
2022/09/01 02:48:36;;;;;;;1999.90;999.90;;;15.30;53.30;;;;;;5013253;28;20203;-64
2022/09/01 02:51:05;;;;;;;1999.90;999.90;;;15.30;55.80;;;;;;5013253;28;20193;-64
2022/09/01 02:53:34;;;;;;;1999.90;999.90;;;15.30;58.30;;;;;;5013060;28;20201;-64
2022/09/01 02:56:01;;;;;;;1999.90;999.90;;;15.30;59.00;;;;;;5012647;28;20235;-65
2022/09/01 02:58:31;;;;;;;1999.90;999.90;;;15.30;62.60;;;;;;5012741;28;20246;-64
2022/09/01 03:00:59;;;;;;;1999.90;999.90;;;15.30;68.40;;;;;;5012824;28;20590;-64
2022/09/01 03:03:27;;;;;;;1999.90;999.90;;;15.20;77.60;;;;;;5012953;28;20204;-63
2022/09/01 03:05:55;;;;;;;1999.90;999.90;;;15.20;88.80;;;;;;5012959;28;20204;-64
2022/09/01 03:08:24;;;;;;;1999.90;999.90;;;15.20;94.50;;;;;;5012999;28;20211;-64
2022/09/01 03:10:53;;;;;;;1999.90;999.90;;;15.20;96.80;;;;;;5012689;28;20692;-64
2022/09/01 03:13:24;;;;;;;1999.90;999.90;;;15.20;99.10;;;;;;5012484;28;20749;-64
2022/09/01 03:15:52;;;;;;;1999.90;999.90;;;15.10;99.90;;;;;;5012908;28;20209;-64
2022/09/01 03:18:19;;;;;;;1999.90;999.90;;;15.10;99.90;;;;;;5012855;28;20201;-64
2022/09/01 03:20:49;;;;;;;1999.90;999.90;;;15.10;99.90;;;;;;5012525;28;20566;-64
2022/09/01 03:23:18;;;;;;;1999.90;999.90;;;15.20;99.90;;;;;;5012523;28;20197;-64
2022/09/01 03:25:47;;;;;;;1999.90;999.90;;;15.20;99.90;;;;;;5011950;28;20678;-64
2022/09/01 03:28:15;;;;;;;1999.90;999.90;;;15.30;99.90;;;;;;5012606;28;20215;-64
2022/09/01 03:30:47;;;;;;;1999.90;999.90;;;15.30;99.90;;;;;;5012771;28;20201;-64
2022/09/01 03:33:17;;;;;;;1999.90;999.90;;;15.30;99.90;;;;;;5012778;28;20196;-64
2022/09/01 03:35:45;;;;;;;1999.90;999.90;;;15.30;99.90;;;;;;5012635;28;20207;-64
2022/09/01 03:38:12;;;;;;;1999.90;999.90;;;15.20;99.90;;;;;;5012374;28;20207;-64
2022/09/01 03:40:41;;;;;;;1999.90;999.90;;;15.30;99.90;;;;;;5012341;28;20205;-64
2022/09/01 03:43:11;;;;;;;1999.90;999.90;;;15.20;99.90;;;;;;5012211;28;20692;-64
2022/09/01 03:45:38;;;;;;;1999.90;999.90;;;15.20;99.90;;;;;;5012632;28;20181;-64
2022/09/01 03:48:07;;;;;;;1999.90;999.90;;;15.20;99.90;;;;;;5012270;28;20258;-64
2022/09/01 03:50:43;;;;;;;1999.90;999.90;;;15.10;99.90;;;;;;5012280;28;20205;-64
2022/09/01 03:53:12;;;;;;;1999.90;999.90;;;15.00;99.90;;;;;;5012296;28;20192;-64
2022/09/01 03:55:43;;;;;;;1999.90;999.90;;;14.90;99.90;;;;;;5012295;28;20208;-65
2022/09/01 03:58:13;;;;;;;1999.90;999.90;;;14.90;99.90;;;;;;5012210;28;20250;-64
2022/09/01 04:00:43;;;;;;;1999.90;999.90;;;14.90;99.90;;;;;;5012260;28;20197;-64
2022/09/01 04:03:12;;;;;;;1999.90;999.90;;;14.90;99.90;;;;;;5012243;28;20197;-63
2022/09/01 04:05:42;;;;;;;1999.90;999.90;;;14.90;99.90;;;;;;5012161;28;20201;-63
2022/09/01 04:08:12;;;;;;;1999.90;999.90;;;14.80;99.90;;;;;;5012197;28;20182;-64
2022/09/01 04:10:49;;;;;;;1999.90;999.90;;;14.80;99.90;;;;;;5012101;28;20200;-64
2022/09/01 04:13:17;;;;;;;1999.90;999.90;;;14.70;99.90;;;;;;5012223;28;20189;-64
2022/09/01 04:15:44;;;;;;;1999.90;999.90;;;14.60;99.90;;;;;;5012094;28;20200;-64
2022/09/01 04:18:19;;;;;;;1999.90;999.90;;;14.60;99.90;;;;;;5012240;28;20212;-64
2022/09/01 04:20:48;;;;;;;1999.90;999.90;;;14.50;99.90;;;;;;5012385;28;20250;-64
2022/09/01 04:23:25;;;;;;;1999.90;999.90;;;14.30;99.90;;;;;;5012236;28;20209;-64
2022/09/01 04:25:55;;;;;;;1999.90;999.90;;;14.30;99.90;;;;;;5012244;28;20177;-64
2022/09/01 04:28:25;;;;;;;1999.90;999.90;;;14.40;99.90;;;;;;5012192;28;20185;-64
2022/09/01 04:30:57;;;;;;;1999.90;999.90;;;14.40;99.90;;;;;;5012469;28;20201;-64
2022/09/01 04:33:26;;;;;;;1999.90;999.90;;;14.40;99.90;;;;;;5012240;28;20205;-63
2022/09/01 04:35:55;;;;;;;1999.90;999.90;;;14.30;99.90;;;;;;5011839;28;20197;-63
2022/09/01 04:38:24;;;;;;;1999.90;999.90;;;14.30;99.90;;;;;;5014835;28;20196;-64
2022/09/01 04:40:52;;;;;;;1999.90;999.90;;;14.30;99.90;;;;;;5015284;28;20209;-64
2022/09/01 04:43:20;;;;;;;1999.90;999.90;;;14.30;99.90;;;;;;5015468;28;20201;-64
2022/09/01 04:45:50;;;;;;;1999.90;999.90;;;14.20;99.90;;;;;;5015521;28;20197;-64
2022/09/01 04:48:19;;;;;;;1999.90;999.90;;;14.20;99.90;;;;;;5015453;28;20197;-63
2022/09/01 04:50:48;;;;;;;1999.90;999.90;;;14.20;99.90;;;;;;5018694;28;20193;-64
2022/09/01 04:53:17;;;;;;;1999.90;999.90;;;14.30;99.90;;;;;;5023387;28;20193;-66
2022/09/01 04:55:44;;;;;;;1999.90;999.90;;;14.30;99.90;;;;;;5023114;28;20239;-64
2022/09/01 04:58:16;;;;;;;1999.90;999.90;;;14.30;99.90;;;;;;5024144;28;20229;-63
2022/09/01 05:00:46;;;;;;;1999.90;999.90;;;14.20;99.90;;;;;;5025165;28;20183;-63
2022/09/01 05:03:15;;;;;;;1999.90;999.90;;;14.20;99.90;;;;;;5033304;28;20245;-63
2022/09/01 05:05:44;;;;;;;1999.90;999.90;;;14.10;99.90;;;;;;5034933;28;20204;-63
2022/09/01 05:08:14;;;;;;;1999.90;999.90;;;14.10;99.90;;;;;;5034553;28;20692;-63
2022/09/01 05:10:45;;;;;;;1999.90;999.90;;;14.10;99.90;;;;;;5034867;28;20204;-63
2022/09/01 05:13:16;;;;;;;1999.90;999.90;;;14.10;99.90;;;;;;5034428;28;20195;-63
2022/09/01 05:15:46;;;;;;;1999.90;999.90;;;14.10;99.90;;;;;;5034766;28;20192;-63
2022/09/01 05:18:15;;;;;;;1999.90;999.90;;;14.10;99.90;;;;;;5030862;28;20201;-63
2022/09/01 05:20:43;;;;;;;1999.90;999.90;;;14.10;99.90;;;;;;5025352;28;20196;-63
2022/09/01 05:23:12;;;;;;;1999.90;999.90;;;14.20;99.90;;;;;;5025749;28;20197;-63
2022/09/01 05:25:44;;;;;;;1999.90;999.90;;;14.20;99.90;;;;;;5024881;28;20575;-64
2022/09/01 05:28:12;;;;;;;1999.90;999.90;;;14.30;99.90;;;;;;5034076;28;20242;-63
2022/09/01 05:30:40;;;;;;;1999.90;999.90;;;14.40;99.90;;;;;;5034120;28;20677;-63
2022/09/01 05:33:10;;;;;;;1999.90;999.90;;;14.40;99.90;;;;;;5027091;28;20192;-63
2022/09/01 05:35:42;;;;;;;1999.90;999.90;;;14.40;99.90;;;;;;5024705;28;20552;-63
2022/09/01 05:38:11;;;;;;;1999.90;999.90;;;14.50;99.90;;;;;;5026024;28;20649;-64
2022/09/01 05:40:40;;;;;;;1999.90;999.90;;;14.60;99.90;;;;;;5034189;28;20196;-63
2022/09/01 05:43:11;;;;;;;1999.90;999.90;;;14.60;99.90;;;;;;5033753;28;20204;-63
2022/09/01 05:45:42;;;;;;;1999.90;999.90;;;14.70;99.90;;;;;;5034036;28;20191;-63
2022/09/01 05:48:19;;;;;;;1999.90;999.90;;;14.80;99.90;;;;;;5033569;28;20184;-63
2022/09/01 05:50:48;;;;;;;1999.90;999.90;;;14.80;99.90;;;;;;5034012;28;20261;-63
2022/09/01 05:53:16;;;;;;;1999.90;999.90;;;14.80;99.90;;;;;;5033591;28;20677;-63
2022/09/01 05:55:45;;;;;;;1999.90;999.90;;;14.90;99.90;;;;;;5033436;28;20192;-64
2022/09/01 05:58:15;;;;;;;1999.90;999.90;;;15.10;99.90;;;;;;5033281;28;20250;-66
2022/09/01 06:00:43;;;;;;;1999.90;999.90;;;15.20;99.90;;;;;;5033536;28;20204;-63
2022/09/01 06:03:13;;;;;;;1999.90;999.90;;;15.20;99.90;;;;;;5033787;28;20192;-61
2022/09/01 06:05:41;;;;;;;1999.90;999.90;;;15.30;99.90;;;;;;5033686;28;20210;-64
2022/09/01 06:08:09;;;;;;;1999.90;999.90;;;15.50;99.90;;;;;;5033606;28;20198;-63
2022/09/01 06:10:38;;;;;;;1999.90;999.90;;;15.70;99.90;;;;;;5033547;28;20203;-64
2022/09/01 06:13:06;;;;;;;1999.90;999.90;;;15.90;99.90;;;;;;5033188;28;20692;-63
2022/09/01 06:15:34;;;;;;;1999.90;999.90;;;16.20;99.90;;;;;;5033552;28;20205;-63
2022/09/01 06:18:02;;;;;;;1999.90;999.90;;;16.60;99.90;;;;;;5033480;28;20226;-64
2022/09/01 06:20:30;;;;;;;1999.90;999.90;;;17.30;99.90;;;;;;5032715;28;20211;-64
2022/09/01 06:22:57;;;;;;;1999.90;999.90;;;18.10;99.90;;;;;;5032466;28;20211;-65
2022/09/01 06:25:29;;;;;;;1999.90;999.90;;;18.70;99.90;;;;;;5032973;28;20565;-65
2022/09/01 06:27:56;;;;;;;1999.90;999.90;;;19.10;99.90;;;;;;5033330;28;20189;-65
2022/09/01 06:30:25;;;;;;;1999.90;999.90;;;19.30;90.80;;;;;;5032946;28;20196;-67
2022/09/01 06:32:53;;;;;;;1999.90;999.90;;;19.80;52.30;;;;;;5032891;28;20742;-65
2022/09/01 06:35:23;;;;;;;1999.90;999.90;;;20.00;15.80;;;;;;5033119;28;20210;-65
2022/09/01 06:37:52;;;;;;;1999.90;999.90;;;20.20;1.00;;;;;;5033066;28;20211;-66
2022/09/01 06:40:19;;;;;;;1999.90;999.90;;;20.20;1.00;;;;;;5033030;28;20196;-65
2022/09/01 06:42:49;;;;;;;1999.90;999.90;;;20.70;1.00;;;;;;5032878;28;20219;-68
2022/09/01 06:45:19;;;;;;;1999.90;999.90;;;20.50;1.00;;;;;;5033295;28;20200;-66
2022/09/01 06:47:49;;;;;;;1999.90;999.90;;;20.80;1.00;;;;;;5032645;28;20199;-66
2022/09/01 06:50:20;;;;;;;1999.90;999.90;;;21.10;1.00;;;;;;5032966;28;20265;-65
2022/09/01 06:52:48;;;;;;;1999.90;999.90;;;21.40;1.00;;;;;;5032825;28;20239;-65
2022/09/01 06:55:17;;;;;;;1999.90;999.90;;;21.30;1.00;;;;;;5032443;28;20241;-65
2022/09/01 06:57:46;;;;;;;1999.90;999.90;;;21.50;1.00;;;;;;5023307;28;20278;-64
2022/09/01 07:00:16;;;;;;;1999.90;999.90;;;21.50;1.00;;;;;;5021927;28;20192;-64
2022/09/01 07:02:44;;;;;;;1999.90;999.90;;;21.60;1.00;;;;;;5020558;28;20191;-63
2022/09/01 07:05:16;;;;;;;1999.90;999.90;;;21.60;1.00;;;;;;5012988;28;20197;-65
2022/09/01 07:07:46;;;;;;;1999.90;999.90;;;22.00;1.00;;;;;;5013045;28;20193;-65
2022/09/01 07:10:14;;;;;;;1999.90;999.90;;;22.30;1.00;;;;;;5012471;28;20204;-64
2022/09/01 07:12:45;;;;;;;1999.90;999.90;;;22.30;1.00;;;;;;5012328;28;20233;-65
2022/09/01 07:15:16;;;;;;;1999.90;999.90;;;22.60;1.00;;;;;;5012585;28;20181;-63
2022/09/01 07:17:47;;;;;;;1999.90;999.90;;;22.90;1.00;;;;;;5012503;28;20700;-62
2022/09/01 07:20:15;;;;;;;1999.90;999.90;;;22.90;1.00;;;;;;5012523;28;20189;-63
2022/09/01 07:22:43;;;;;;;1999.90;999.90;;;23.30;1.00;;;;;;5012543;28;20988;-66
2022/09/01 07:25:11;;;;;;;1999.90;999.90;;;23.40;1.00;;;;;;5012407;28;20219;-65
2022/09/01 07:27:38;;;;;;;1999.90;999.90;;;23.30;1.00;;;;;;5012793;28;20197;-64
2022/09/01 07:30:10;;;;;;;1999.90;999.90;;;23.30;1.00;;;;;;5012408;28;20204;-64
2022/09/01 07:32:39;;;;;;;1999.90;999.90;;;23.80;1.00;;;;;;5012474;28;20565;-65
2022/09/01 07:35:07;;;;;;;1999.90;999.90;;;24.00;1.00;;;;;;5012729;28;20227;-66
2022/09/01 07:37:36;;;;;;;1999.90;999.90;;;24.20;1.00;;;;;;5012291;28;20300;-64
2022/09/01 07:40:06;;;;;;;1999.90;999.90;;;23.20;1.00;;;;;;5012664;28;20209;-64
2022/09/01 07:42:34;;;;;;;1999.90;999.90;;;23.40;1.00;;;;;;5012196;28;20577;-66
2022/09/01 07:45:03;;;;;;;1999.90;999.90;;;23.90;1.00;;;;;;5012047;28;20561;-67
2022/09/01 07:47:35;;;;;;;1999.90;999.90;;;23.80;1.00;;;;;;5012144;28;20242;-69
2022/09/01 07:50:04;;;;;;;1999.90;999.90;;;23.60;1.00;;;;;;5012552;28;20189;-68
2022/09/01 07:52:31;;;;;;;1999.90;999.90;;;24.10;1.00;;;;;;5012556;28;20189;-70
2022/09/01 07:54:58;;;;;;;1999.90;999.90;;;23.60;1.00;;;;;;5012163;28;21041;-66
2022/09/01 07:57:25;;;;;;;1999.90;999.90;;;23.80;1.00;;;;;;5011871;28;20282;-68
2022/09/01 07:59:54;;;;;;;1999.90;999.90;;;23.80;1.00;;;;;;5012449;28;20211;-67
2022/09/01 08:02:22;;;;;;;1999.90;999.90;;;23.70;1.00;;;;;;5012125;28;20199;-66
2022/09/01 08:04:50;;;;;;;1999.90;999.90;;;23.90;1.00;;;;;;5012405;28;20197;-68
2022/09/01 08:07:19;;;;;;;1999.90;999.90;;;24.10;1.00;;;;;;5012333;28;20207;-67
2022/09/01 08:09:46;;;;;;;1999.90;999.90;;;24.10;1.00;;;;;;5011742;28;20662;-69
2022/09/01 08:12:13;;;;;;;1999.90;999.90;;;24.20;1.00;;;;;;5014614;28;20204;-69
2022/09/01 08:14:40;;;;;;;1999.90;999.90;;;24.80;1.00;;;;;;5015992;28;20200;-67
2022/09/01 08:17:07;;;;;;;1999.90;999.90;;;24.70;1.00;;;;;;5015632;28;20254;-67
2022/09/01 08:19:34;;;;;;;1999.90;999.90;;;25.00;1.00;;;;;;5015481;28;20217;-67
2022/09/01 08:22:03;;;;;;;1999.90;999.90;;;25.40;1.00;;;;;;5015583;28;20207;-69
2022/09/01 08:24:30;;;;;;;1999.90;999.90;;;25.70;1.00;;;;;;5015601;28;20670;-68
2022/09/01 08:26:58;;;;;;;1999.90;999.90;;;25.70;1.00;;;;;;5015569;28;20209;-69
2022/09/01 08:29:25;;;;;;;1999.90;999.90;;;26.00;1.00;;;;;;5015445;28;20223;-67
2022/09/01 08:31:53;;;;;;;1999.90;999.90;;;25.90;1.00;;;;;;5015434;28;20692;-67
2022/09/01 08:34:20;;;;;;;1999.90;999.90;;;26.10;1.00;;;;;;5015400;28;20700;-68
2022/09/01 08:36:47;;;;;;;1999.90;999.90;;;26.40;1.00;;;;;;5015417;28;20219;-69
2022/09/01 08:39:15;;;;;;;1999.90;999.90;;;26.80;1.00;;;;;;5015562;28;20217;-69
2022/09/01 08:41:46;;;;;;;1999.90;999.90;;;26.90;1.00;;;;;;5015250;28;20190;-69
2022/09/01 08:44:21;;;;;;;1999.90;999.90;;;27.10;1.00;;;;;;5015292;28;20191;-69
2022/09/01 08:46:55;;;;;;;1999.90;999.90;;;27.50;1.00;;;;;;5015558;28;20185;-69
2022/09/01 08:49:24;;;;;;;1999.90;999.90;;;27.60;1.00;;;;;;5015151;28;20243;-69
2022/09/01 08:51:57;;;;;;;1999.90;999.90;;;27.40;1.00;;;;;;5015132;28;20201;-69
2022/09/01 08:54:35;;;;;;;1999.90;999.90;;;27.50;1.00;;;;;;5014953;28;20185;-67
2022/09/01 08:57:06;;;;;;;1999.90;999.90;;;27.30;1.00;;;;;;5014818;28;20255;-66
2022/09/01 08:59:33;;;;;;;1999.90;999.90;;;27.10;1.00;;;;;;5014890;28;20255;-66
2022/09/01 09:02:24;;;;;;;1999.90;999.90;;;27.20;1.00;;;;;;5015209;28;20201;-65
2022/09/01 09:05:01;;;;;;;1999.90;999.90;;;26.50;1.00;;;;;;5014905;28;20207;-66
2022/09/01 09:07:42;;;;;;;1999.90;999.90;;;26.40;1.00;;;;;;5015185;28;20189;-66
2022/09/01 09:10:16;;;;;;;1999.90;999.90;;;26.40;1.00;;;;;;5014699;28;20193;-65
2022/09/01 09:12:55;;;;;;;1999.90;999.90;;;26.80;1.00;;;;;;5014409;28;20247;-66
2022/09/01 09:15:30;;;;;;;1999.90;999.90;;;27.00;1.00;;;;;;5014621;28;20185;-66
2022/09/01 09:18:05;;;;;;;1999.90;999.90;;;26.80;1.00;;;;;;5014815;28;20204;-66
2022/09/01 09:20:32;;;;;;;1999.90;999.90;;;27.50;1.00;;;;;;5014601;28;20186;-66
2022/09/01 09:23:05;;;;;;;1999.90;999.90;;;27.40;1.00;;;;;;5014134;28;20207;-64
2022/09/01 09:25:33;;;;;;;1999.90;999.90;;;27.20;1.00;;;;;;5014373;28;20670;-66
2022/09/01 09:28:00;;;;;;;1999.90;999.90;;;26.70;1.00;;;;;;5014679;28;20197;-66
2022/09/01 09:30:30;;;;;;;1999.90;999.90;;;26.70;1.00;;;;;;5014622;28;20203;-67
2022/09/01 09:32:59;;;;;;;1999.90;999.90;;;26.40;1.00;;;;;;5014596;28;20204;-66
2022/09/01 09:35:30;;;;;;;1999.90;999.90;;;26.60;1.00;;;;;;5014590;28;20199;-66
2022/09/01 09:38:19;;;;;;;1999.90;999.90;;;27.00;1.00;;;;;;5014414;28;20235;-67
2022/09/01 09:40:59;;;;;;;1999.90;999.90;;;27.00;1.00;;;;;;5014499;28;20215;-67
2022/09/01 09:43:28;;;;;;;1999.90;999.90;;;27.30;1.00;;;;;;5014064;28;20665;-67
2022/09/01 09:46:26;;;;;;;1999.90;999.90;;;27.70;1.00;;;;;;5014127;28;20205;-67
2022/09/01 09:49:10;;;;;;;1999.90;999.90;;;28.10;1.00;;;;;;5014030;28;20208;-66
2022/09/01 09:51:38;;;;;;;1999.90;999.90;;;27.10;1.00;;;;;;5013996;28;20189;-66
2022/09/01 09:54:14;;;;;;;1999.90;999.90;;;27.10;1.00;;;;;;5013851;28;20572;-66
2022/09/01 09:56:44;;;;;;;1999.90;999.90;;;27.30;1.00;;;;;;5013757;28;20221;-66
2022/09/01 09:59:22;;;;;;;1999.90;999.90;;;27.20;1.00;;;;;;5014096;28;20209;-66
2022/09/01 10:01:50;;;;;;;1999.90;999.90;;;26.90;1.00;;;;;;5014202;28;20195;-65
2022/09/01 10:04:33;;;;;;;1999.90;999.90;;;26.10;1.00;;;;;;5014001;28;20203;-65
2022/09/01 10:07:00;;;;;;;1999.90;999.90;;;27.00;1.00;;;;;;5014001;28;20207;-65
2022/09/01 10:09:37;;;;;;;1999.90;999.90;;;28.00;1.00;;;;;;5013627;28;20196;-65
2022/09/01 10:12:06;;;;;;;1999.90;999.90;;;27.80;1.00;;;;;;5013880;28;20234;-65
2022/09/01 10:14:47;;;;;;;1999.90;999.90;;;27.30;1.00;;;;;;5013877;28;20196;-66
2022/09/01 10:17:18;;;;;;;1999.90;999.90;;;27.60;1.00;;;;;;5013548;28;20215;-66
2022/09/01 10:19:51;;;;;;;1999.90;999.90;;;28.30;1.00;;;;;;5013400;28;20220;-66
2022/09/01 10:22:18;;;;;;;1999.90;999.90;;;28.20;1.00;;;;;;5013790;28;20189;-65
2022/09/01 10:24:45;;;;;;;1999.90;999.90;;;26.80;1.00;;;;;;5013563;28;20224;-66
2022/09/01 10:27:20;;;;;;;1999.90;999.90;;;27.10;1.00;;;;;;5013641;28;20197;-66
2022/09/01 10:29:54;;;;;;;1999.90;999.90;;;27.40;1.00;;;;;;5013603;28;20187;-66
2022/09/01 10:32:27;;;;;;;1999.90;999.90;;;27.50;1.00;;;;;;5013554;28;20181;-66
2022/09/01 10:34:55;;;;;;;1999.90;999.90;;;28.20;1.00;;;;;;5012272;28;20660;-64
2022/09/01 10:37:23;;;;;;;1999.90;999.90;;;28.60;1.00;;;;;;5012899;28;20203;-66
2022/09/01 10:40:13;;;;;;;1999.90;999.90;;;29.40;1.00;;;;;;5012953;28;20223;-66
2022/09/01 10:42:44;;;;;;;1999.90;999.90;;;29.70;1.00;;;;;;5012680;28;20267;-68
2022/09/01 10:45:28;;;;;;;1999.90;999.90;;;29.90;1.00;;;;;;5013019;28;20185;-68
2022/09/01 10:47:56;;;;;;;1999.90;999.90;;;29.30;1.00;;;;;;5013040;28;20189;-68
2022/09/01 10:50:27;;;;;;;1999.90;999.90;;;29.40;1.00;;;;;;5013134;28;20195;-69
2022/09/01 10:53:07;;;;;;;1999.90;999.90;;;29.50;1.00;;;;;;5013227;28;20185;-69
2022/09/01 10:55:45;;;;;;;1999.90;999.90;;;29.80;1.00;;;;;;5012719;28;20258;-69
2022/09/01 10:58:34;;;;;;;1999.90;999.90;;;29.90;1.00;;;;;;5012676;28;20228;-68
2022/09/01 11:01:01;;;;;;;1999.90;999.90;;;30.00;1.00;;;;;;5013166;28;20203;-68
2022/09/01 11:04:00;;;;;;;1999.90;999.90;;;29.60;1.00;;;;;;5012434;28;20673;-66
2022/09/01 11:06:57;;;;;;;1999.90;999.90;;;29.90;1.00;;;;;;5012962;28;20181;-67
2022/09/01 11:09:28;;;;;;;1999.90;999.90;;;30.40;1.00;;;;;;5012725;28;20250;-66
2022/09/01 11:12:25;;;;;;;1999.90;999.90;;;30.00;1.00;;;;;;5012367;28;20251;-68
2022/09/01 11:14:55;;;;;;;1999.90;999.90;;;29.80;1.00;;;;;;5004922;28;20209;-69
2022/09/01 11:17:26;;;;;;;1999.90;999.90;;;29.20;1.00;;;;;;5012812;28;20185;-67
2022/09/01 11:20:12;;;;;;;1999.90;999.90;;;29.50;1.00;;;;;;5012503;28;20259;-67
2022/09/01 11:22:41;;;;;;;1999.90;999.90;;;29.40;1.00;;;;;;5012864;28;20191;-67
2022/09/01 11:25:35;;;;;;;1999.90;999.90;;;29.80;1.00;;;;;;5012658;28;20199;-67
2022/09/01 11:28:37;;;;;;;1999.90;999.90;;;30.00;1.00;;;;;;5006508;28;20250;-69
2022/09/01 11:31:28;;;;;;;1999.90;999.90;;;29.40;1.00;;;;;;5012707;28;20532;-67
2022/09/01 11:34:18;;;;;;;1999.90;999.90;;;29.80;1.00;;;;;;5012485;28;20189;-66
2022/09/01 11:36:51;;;;;;;1999.90;999.90;;;29.30;1.00;;;;;;5008578;28;20208;-69
2022/09/01 11:39:33;;;;;;;1999.90;999.90;;;29.10;1.00;;;;;;5012534;28;20212;-68
2022/09/01 11:42:05;;;;;;;1999.90;999.90;;;29.60;1.00;;;;;;5012357;28;20186;-67
2022/09/01 11:44:39;;;;;;;1999.90;999.90;;;30.00;1.00;;;;;;5011755;28;20181;-68
2022/09/01 11:47:15;;;;;;;1999.90;999.90;;;29.90;1.00;;;;;;5015099;28;20191;-68
2022/09/01 11:49:50;;;;;;;1999.90;999.90;;;29.80;1.00;;;;;;5015383;28;20668;-67
2022/09/01 11:52:20;;;;;;;1999.90;999.90;;;29.30;1.00;;;;;;5016147;28;20185;-68
2022/09/01 11:54:49;;;;;;;1999.90;999.90;;;29.30;1.00;;;;;;5016067;28;20539;-68
2022/09/01 11:57:23;;;;;;;1999.90;999.90;;;29.10;1.00;;;;;;5015347;28;20241;-67
2022/09/01 11:59:51;;;;;;;1999.90;999.90;;;28.80;1.00;;;;;;5015990;28;20208;-66
2022/09/01 12:02:22;;;;;;;1999.90;999.90;;;28.30;1.00;;;;;;5016340;28;20215;-65
2022/09/01 12:04:50;;;;;;;1999.90;999.90;;;28.20;1.00;;;;;;5016271;28;20181;-65
2022/09/01 12:07:27;;;;;;;1999.90;999.90;;;28.20;1.00;;;;;;5016177;28;20205;-66
2022/09/01 12:09:55;;;;;;;1999.90;999.90;;;28.90;1.00;;;;;;5015895;28;20181;-66
2022/09/01 12:12:32;;;;;;;1999.90;999.90;;;29.00;1.00;;;;;;5016043;28;20200;-66
2022/09/01 12:15:02;;;;;;;1999.90;999.90;;;29.10;1.00;;;;;;5015815;28;20189;-67
2022/09/01 12:17:30;;;;;;;1999.90;999.90;;;28.90;1.00;;;;;;5015727;28;20213;-65
2022/09/01 12:20:20;;;;;;;1999.90;999.90;;;29.60;1.00;;;;;;5015978;28;20220;-67
2022/09/01 12:22:47;;;;;;;1999.90;999.90;;;29.50;1.00;;;;;;5015762;28;20559;-66
2022/09/01 12:25:21;;;;;;;1999.90;999.90;;;29.90;1.00;;;;;;5015508;28;20563;-67